Appleton, Washington
Current Conditions -  °F | °C
As of 9:53 AM on Thursday 27 Nov 2014 (Local Time) from KDLS Reporting Station
Overcast Overcast  
Wind Chill: 55°   Ceiling: 7000
Heat Index: 55°   Visibility: 10mi
Dew Point: 48°   Wind: 6mph
Humidity: 77%   Direction: 40°NE
Pressure: 29.95"   Gusts: NA
Location:  45.81°N, 121.27°W
Report Text: KDLS 271753Z AUTO 04005KT 10SM BKN070 OVC085 13/09 A2995 RMK AO2 SLP141 T01280089 10128 20083 53003
Loading
Personal Weather Stations






























Interactive Weather Map New forecast layout! Learn more

10-Day Weather Forecast

Advertisements
Track Severe Weather on mobile